sensor_id;sensor_type;location;lat;lon;timestamp;P1;durP1;ratioP1;P2;durP2;ratioP2
29210;SDS011;16250;49.932;10.980;2023-07-31T00:00:10;5.60;;;2.53;;
29210;SDS011;16250;49.932;10.980;2023-07-31T00:02:36;11.35;;;2.80;;
29210;SDS011;16250;49.932;10.980;2023-07-31T00:05:01;5.80;;;2.63;;
29210;SDS011;16250;49.932;10.980;2023-07-31T00:07:27;6.70;;;2.45;;
29210;SDS011;16250;49.932;10.980;2023-07-31T00:09:52;3.92;;;2.35;;
29210;SDS011;16250;49.932;10.980;2023-07-31T00:12:19;7.60;;;2.58;;
29210;SDS011;16250;49.932;10.980;2023-07-31T00:14:44;7.00;;;2.40;;
29210;SDS011;16250;49.932;10.980;2023-07-31T00:17:10;6.68;;;2.80;;
29210;SDS011;16250;49.932;10.980;2023-07-31T00:19:36;5.15;;;2.40;;
29210;SDS011;16250;49.932;10.980;2023-07-31T00:22:01;5.15;;;2.35;;
29210;SDS011;16250;49.932;10.980;2023-07-31T00:24:26;5.05;;;2.38;;
29210;SDS011;16250;49.932;10.980;2023-07-31T00:26:52;5.03;;;2.38;;
29210;SDS011;16250;49.932;10.980;2023-07-31T00:29:18;3.90;;;2.40;;
29210;SDS011;16250;49.932;10.980;2023-07-31T00:31:43;6.82;;;2.45;;
29210;SDS011;16250;49.932;10.980;2023-07-31T00:34:09;4.90;;;2.35;;
29210;SDS011;16250;49.932;10.980;2023-07-31T00:36:34;7.05;;;2.42;;
29210;SDS011;16250;49.932;10.980;2023-07-31T00:38:59;4.05;;;2.10;;
29210;SDS011;16250;49.932;10.980;2023-07-31T00:41:25;5.65;;;2.40;;
29210;SDS011;16250;49.932;10.980;2023-07-31T00:43:50;6.28;;;2.42;;
29210;SDS011;16250;49.932;10.980;2023-07-31T00:46:16;7.22;;;2.63;;
29210;SDS011;16250;49.932;10.980;2023-07-31T00:48:41;5.35;;;2.50;;
29210;SDS011;16250;49.932;10.980;2023-07-31T00:51:07;6.43;;;2.28;;
29210;SDS011;16250;49.932;10.980;2023-07-31T00:53:34;5.70;;;2.92;;
29210;SDS011;16250;49.932;10.980;2023-07-31T00:55:59;5.55;;;2.47;;
29210;SDS011;16250;49.932;10.980;2023-07-31T00:58:25;4.35;;;2.17;;
29210;SDS011;16250;49.932;10.980;2023-07-31T01:00:51;5.50;;;2.35;;
29210;SDS011;16250;49.932;10.980;2023-07-31T01:03:16;5.65;;;2.30;;
29210;SDS011;16250;49.932;10.980;2023-07-31T01:10:55;7.88;;;2.72;;
29210;SDS011;16250;49.932;10.980;2023-07-31T01:13:23;7.30;;;2.47;;
29210;SDS011;16250;49.932;10.980;2023-07-31T01:15:49;5.30;;;2.40;;
29210;SDS011;16250;49.932;10.980;2023-07-31T01:18:14;4.78;;;2.72;;
29210;SDS011;16250;49.932;10.980;2023-07-31T01:20:41;7.45;;;2.35;;
29210;SDS011;16250;49.932;10.980;2023-07-31T01:26:12;5.70;;;2.50;;
29210;SDS011;16250;49.932;10.980;2023-07-31T01:31:14;7.05;;;2.65;;
29210;SDS011;16250;49.932;10.980;2023-07-31T01:33:42;6.45;;;2.70;;
29210;SDS011;16250;49.932;10.980;2023-07-31T01:36:08;8.98;;;2.80;;
29210;SDS011;16250;49.932;10.980;2023-07-31T01:38:33;7.95;;;2.58;;
29210;SDS011;16250;49.932;10.980;2023-07-31T01:40:59;5.55;;;2.40;;
29210;SDS011;16250;49.932;10.980;2023-07-31T01:43:24;6.90;;;2.67;;
29210;SDS011;16250;49.932;10.980;2023-07-31T01:45:50;5.07;;;2.40;;
29210;SDS011;16250;49.932;10.980;2023-07-31T01:48:16;6.97;;;2.65;;
29210;SDS011;16250;49.932;10.980;2023-07-31T01:50:42;6.38;;;2.72;;
29210;SDS011;16250;49.932;10.980;2023-07-31T01:53:07;7.03;;;2.72;;
29210;SDS011;16250;49.932;10.980;2023-07-31T01:55:32;6.97;;;2.50;;
29210;SDS011;16250;49.932;10.980;2023-07-31T01:57:58;4.40;;;2.72;;
29210;SDS011;16250;49.932;10.980;2023-07-31T02:00:26;6.40;;;2.30;;
29210;SDS011;16250;49.932;10.980;2023-07-31T02:02:52;6.68;;;2.50;;
29210;SDS011;16250;49.932;10.980;2023-07-31T02:05:18;5.47;;;2.60;;
29210;SDS011;16250;49.932;10.980;2023-07-31T02:07:44;8.88;;;2.60;;
29210;SDS011;16250;49.932;10.980;2023-07-31T02:10:09;6.03;;;2.67;;
29210;SDS011;16250;49.932;10.980;2023-07-31T02:12:34;6.75;;;2.70;;
29210;SDS011;16250;49.932;10.980;2023-07-31T02:15:01;6.93;;;2.53;;
29210;SDS011;16250;49.932;10.980;2023-07-31T02:17:26;7.55;;;2.90;;
29210;SDS011;16250;49.932;10.980;2023-07-31T02:19:52;5.53;;;2.47;;
29210;SDS011;16250;49.932;10.980;2023-07-31T02:22:18;8.13;;;3.28;;
29210;SDS011;16250;49.932;10.980;2023-07-31T02:24:43;7.50;;;2.70;;
29210;SDS011;16250;49.932;10.980;2023-07-31T02:27:09;6.70;;;2.38;;
29210;SDS011;16250;49.932;10.980;2023-07-31T02:29:34;5.95;;;2.72;;
29210;SDS011;16250;49.932;10.980;2023-07-31T02:32:00;7.60;;;2.40;;
29210;SDS011;16250;49.932;10.980;2023-07-31T02:34:25;7.78;;;2.75;;
29210;SDS011;16250;49.932;10.980;2023-07-31T02:36:52;5.88;;;2.45;;
29210;SDS011;16250;49.932;10.980;2023-07-31T02:39:17;4.90;;;2.40;;
29210;SDS011;16250;49.932;10.980;2023-07-31T02:41:42;5.88;;;2.22;;
29210;SDS011;16250;49.932;10.980;2023-07-31T02:44:08;4.85;;;2.47;;
29210;SDS011;16250;49.932;10.980;2023-07-31T02:46:33;7.20;;;2.70;;
29210;SDS011;16250;49.932;10.980;2023-07-31T02:48:59;4.20;;;2.60;;
29210;SDS011;16250;49.932;10.980;2023-07-31T02:51:25;6.25;;;2.60;;
29210;SDS011;16250;49.932;10.980;2023-07-31T02:53:50;7.10;;;2.45;;
29210;SDS011;16250;49.932;10.980;2023-07-31T02:56:16;4.93;;;2.30;;
29210;SDS011;16250;49.932;10.980;2023-07-31T02:58:41;4.82;;;2.80;;
29210;SDS011;16250;49.932;10.980;2023-07-31T03:01:06;6.97;;;2.47;;
29210;SDS011;16250;49.932;10.980;2023-07-31T03:03:32;7.63;;;2.40;;
29210;SDS011;16250;49.932;10.980;2023-07-31T03:05:57;5.38;;;2.70;;
29210;SDS011;16250;49.932;10.980;2023-07-31T03:08:23;12.73;;;2.40;;
29210;SDS011;16250;49.932;10.980;2023-07-31T03:10:48;5.13;;;2.22;;
29210;SDS011;16250;49.932;10.980;2023-07-31T03:13:14;6.75;;;2.42;;
29210;SDS011;16250;49.932;10.980;2023-07-31T03:15:41;5.50;;;2.50;;
29210;SDS011;16250;49.932;10.980;2023-07-31T03:18:07;6.22;;;2.28;;
29210;SDS011;16250;49.932;10.980;2023-07-31T03:20:32;5.85;;;2.67;;
29210;SDS011;16250;49.932;10.980;2023-07-31T03:22:58;6.55;;;2.70;;
29210;SDS011;16250;49.932;10.980;2023-07-31T03:25:23;6.05;;;2.50;;
29210;SDS011;16250;49.932;10.980;2023-07-31T03:27:49;5.85;;;2.22;;
29210;SDS011;16250;49.932;10.980;2023-07-31T03:30:15;6.18;;;2.20;;
29210;SDS011;16250;49.932;10.980;2023-07-31T03:32:41;8.32;;;2.65;;
29210;SDS011;16250;49.932;10.980;2023-07-31T03:35:06;6.93;;;2.58;;
29210;SDS011;16250;49.932;10.980;2023-07-31T03:37:32;4.97;;;2.55;;
29210;SDS011;16250;49.932;10.980;2023-07-31T03:39:57;5.70;;;2.72;;
29210;SDS011;16250;49.932;10.980;2023-07-31T03:42:22;5.82;;;2.08;;
29210;SDS011;16250;49.932;10.980;2023-07-31T03:44:49;6.25;;;2.88;;
29210;SDS011;16250;49.932;10.980;2023-07-31T03:47:16;5.78;;;2.70;;
29210;SDS011;16250;49.932;10.980;2023-07-31T03:49:41;5.57;;;2.70;;
29210;SDS011;16250;49.932;10.980;2023-07-31T03:52:06;4.85;;;2.10;;
29210;SDS011;16250;49.932;10.980;2023-07-31T03:54:32;5.70;;;2.72;;
29210;SDS011;16250;49.932;10.980;2023-07-31T03:56:58;5.85;;;2.67;;
29210;SDS011;16250;49.932;10.980;2023-07-31T03:59:23;9.70;;;2.50;;
29210;SDS011;16250;49.932;10.980;2023-07-31T04:01:48;6.80;;;2.50;;
29210;SDS011;16250;49.932;10.980;2023-07-31T04:04:14;9.70;;;2.55;;
29210;SDS011;16250;49.932;10.980;2023-07-31T04:06:39;5.30;;;2.65;;
29210;SDS011;16250;49.932;10.980;2023-07-31T04:09:05;10.20;;;2.97;;
29210;SDS011;16250;49.932;10.980;2023-07-31T04:11:30;6.93;;;2.50;;
29210;SDS011;16250;49.932;10.980;2023-07-31T04:13:55;6.63;;;2.50;;
29210;SDS011;16250;49.932;10.980;2023-07-31T04:16:21;5.78;;;2.53;;
29210;SDS011;16250;49.932;10.980;2023-07-31T04:18:46;7.03;;;2.42;;
29210;SDS011;16250;49.932;10.980;2023-07-31T04:21:11;7.57;;;2.33;;
29210;SDS011;16250;49.932;10.980;2023-07-31T04:23:37;6.25;;;2.65;;
29210;SDS011;16250;49.932;10.980;2023-07-31T04:26:03;4.60;;;2.17;;
29210;SDS011;16250;49.932;10.980;2023-07-31T04:28:28;5.65;;;2.22;;
29210;SDS011;16250;49.932;10.980;2023-07-31T04:30:56;5.40;;;2.40;;
29210;SDS011;16250;49.932;10.980;2023-07-31T04:33:21;10.10;;;2.65;;
29210;SDS011;16250;49.932;10.980;2023-07-31T04:35:51;7.95;;;2.60;;
29210;SDS011;16250;49.932;10.980;2023-07-31T04:38:18;4.72;;;1.92;;
29210;SDS011;16250;49.932;10.980;2023-07-31T04:40:46;6.10;;;2.40;;
29210;SDS011;16250;49.932;10.980;2023-07-31T04:43:12;7.30;;;2.42;;
29210;SDS011;16250;49.932;10.980;2023-07-31T04:45:37;10.60;;;2.88;;
29210;SDS011;16250;49.932;10.980;2023-07-31T04:48:03;5.18;;;2.60;;
29210;SDS011;16250;49.932;10.980;2023-07-31T04:50:28;6.65;;;2.60;;
29210;SDS011;16250;49.932;10.980;2023-07-31T04:52:55;7.32;;;3.00;;
29210;SDS011;16250;49.932;10.980;2023-07-31T04:55:21;4.10;;;2.15;;
29210;SDS011;16250;49.932;10.980;2023-07-31T04:57:46;5.88;;;2.35;;
29210;SDS011;16250;49.932;10.980;2023-07-31T05:00:12;8.05;;;2.80;;
29210;SDS011;16250;49.932;10.980;2023-07-31T05:02:37;6.95;;;2.60;;
29210;SDS011;16250;49.932;10.980;2023-07-31T05:05:03;5.10;;;2.47;;
29210;SDS011;16250;49.932;10.980;2023-07-31T05:07:28;6.30;;;2.47;;
29210;SDS011;16250;49.932;10.980;2023-07-31T05:09:54;6.82;;;2.90;;
29210;SDS011;16250;49.932;10.980;2023-07-31T05:12:19;8.00;;;2.60;;
29210;SDS011;16250;49.932;10.980;2023-07-31T05:14:44;6.93;;;2.67;;
29210;SDS011;16250;49.932;10.980;2023-07-31T05:17:10;4.63;;;2.58;;
29210;SDS011;16250;49.932;10.980;2023-07-31T05:19:35;7.65;;;2.55;;
29210;SDS011;16250;49.932;10.980;2023-07-31T05:22:00;10.43;;;3.28;;
29210;SDS011;16250;49.932;10.980;2023-07-31T05:24:26;5.63;;;2.38;;
29210;SDS011;16250;49.932;10.980;2023-07-31T05:26:51;5.50;;;2.60;;
29210;SDS011;16250;49.932;10.980;2023-07-31T05:29:17;4.88;;;2.83;;
29210;SDS011;16250;49.932;10.980;2023-07-31T05:31:42;5.10;;;2.60;;
29210;SDS011;16250;49.932;10.980;2023-07-31T05:34:08;5.63;;;2.10;;
29210;SDS011;16250;49.932;10.980;2023-07-31T05:36:33;7.03;;;3.05;;
29210;SDS011;16250;49.932;10.980;2023-07-31T05:38:59;6.80;;;2.58;;
29210;SDS011;16250;49.932;10.980;2023-07-31T05:41:25;7.07;;;2.85;;
29210;SDS011;16250;49.932;10.980;2023-07-31T05:43:50;5.05;;;2.30;;
29210;SDS011;16250;49.932;10.980;2023-07-31T05:46:16;6.45;;;2.45;;
29210;SDS011;16250;49.932;10.980;2023-07-31T05:48:42;4.35;;;2.30;;
29210;SDS011;16250;49.932;10.980;2023-07-31T05:51:07;6.68;;;2.47;;
29210;SDS011;16250;49.932;10.980;2023-07-31T05:53:32;7.20;;;2.55;;
29210;SDS011;16250;49.932;10.980;2023-07-31T05:55:58;6.05;;;2.72;;
29210;SDS011;16250;49.932;10.980;2023-07-31T05:58:23;7.28;;;2.60;;
29210;SDS011;16250;49.932;10.980;2023-07-31T06:00:48;6.20;;;2.80;;
29210;SDS011;16250;49.932;10.980;2023-07-31T06:03:14;5.95;;;2.30;;
29210;SDS011;16250;49.932;10.980;2023-07-31T06:05:39;6.80;;;2.88;;
29210;SDS011;16250;49.932;10.980;2023-07-31T06:08:05;7.32;;;2.47;;
29210;SDS011;16250;49.932;10.980;2023-07-31T06:10:30;6.22;;;2.70;;
29210;SDS011;16250;49.932;10.980;2023-07-31T06:12:55;5.93;;;2.60;;
29210;SDS011;16250;49.932;10.980;2023-07-31T06:15:22;7.22;;;2.80;;
29210;SDS011;16250;49.932;10.980;2023-07-31T06:17:47;6.55;;;2.35;;
29210;SDS011;16250;49.932;10.980;2023-07-31T06:20:13;5.88;;;2.42;;
29210;SDS011;16250;49.932;10.980;2023-07-31T06:22:38;4.50;;;2.33;;
29210;SDS011;16250;49.932;10.980;2023-07-31T06:25:04;7.57;;;2.92;;
29210;SDS011;16250;49.932;10.980;2023-07-31T06:27:29;7.18;;;2.90;;
29210;SDS011;16250;49.932;10.980;2023-07-31T06:29:55;4.32;;;2.40;;
29210;SDS011;16250;49.932;10.980;2023-07-31T06:32:20;6.85;;;2.83;;
29210;SDS011;16250;49.932;10.980;2023-07-31T06:34:45;6.93;;;2.58;;
29210;SDS011;16250;49.932;10.980;2023-07-31T06:37:11;8.73;;;2.40;;
29210;SDS011;16250;49.932;10.980;2023-07-31T06:39:36;5.57;;;2.60;;
29210;SDS011;16250;49.932;10.980;2023-07-31T06:42:02;8.95;;;3.08;;
29210;SDS011;16250;49.932;10.980;2023-07-31T06:44:28;5.93;;;2.72;;
29210;SDS011;16250;49.932;10.980;2023-07-31T06:46:53;5.80;;;2.70;;
29210;SDS011;16250;49.932;10.980;2023-07-31T06:49:18;5.13;;;2.67;;
29210;SDS011;16250;49.932;10.980;2023-07-31T06:51:44;6.82;;;2.58;;
29210;SDS011;16250;49.932;10.980;2023-07-31T06:54:09;7.43;;;2.47;;
29210;SDS011;16250;49.932;10.980;2023-07-31T06:56:35;4.63;;;2.60;;
29210;SDS011;16250;49.932;10.980;2023-07-31T06:59:00;5.78;;;2.47;;
29210;SDS011;16250;49.932;10.980;2023-07-31T07:01:26;4.97;;;2.60;;
29210;SDS011;16250;49.932;10.980;2023-07-31T07:03:52;7.28;;;2.70;;
29210;SDS011;16250;49.932;10.980;2023-07-31T07:06:18;5.18;;;2.25;;
29210;SDS011;16250;49.932;10.980;2023-07-31T07:08:44;8.45;;;3.00;;
29210;SDS011;16250;49.932;10.980;2023-07-31T07:11:09;5.07;;;2.33;;
29210;SDS011;16250;49.932;10.980;2023-07-31T07:13:34;7.15;;;2.58;;
29210;SDS011;16250;49.932;10.980;2023-07-31T07:16:00;7.47;;;2.90;;
29210;SDS011;16250;49.932;10.980;2023-07-31T07:18:25;6.78;;;2.70;;
29210;SDS011;16250;49.932;10.980;2023-07-31T07:20:51;6.97;;;3.05;;
29210;SDS011;16250;49.932;10.980;2023-07-31T07:23:17;6.00;;;2.92;;
29210;SDS011;16250;49.932;10.980;2023-07-31T07:25:43;8.90;;;2.60;;
29210;SDS011;16250;49.932;10.980;2023-07-31T07:28:10;8.73;;;2.70;;
29210;SDS011;16250;49.932;10.980;2023-07-31T07:30:35;5.88;;;2.65;;
29210;SDS011;16250;49.932;10.980;2023-07-31T07:33:01;10.63;;;3.40;;
29210;SDS011;16250;49.932;10.980;2023-07-31T07:35:26;5.00;;;2.63;;
29210;SDS011;16250;49.932;10.980;2023-07-31T07:37:51;6.75;;;2.70;;
29210;SDS011;16250;49.932;10.980;2023-07-31T07:40:17;6.40;;;3.00;;
29210;SDS011;16250;49.932;10.980;2023-07-31T07:42:42;4.82;;;2.40;;
29210;SDS011;16250;49.932;10.980;2023-07-31T07:45:08;5.82;;;3.20;;
29210;SDS011;16250;49.932;10.980;2023-07-31T07:47:34;6.68;;;2.95;;
29210;SDS011;16250;49.932;10.980;2023-07-31T07:49:59;4.88;;;3.08;;
29210;SDS011;16250;49.932;10.980;2023-07-31T07:52:24;4.70;;;2.80;;
29210;SDS011;16250;49.932;10.980;2023-07-31T07:54:50;8.38;;;2.75;;
29210;SDS011;16250;49.932;10.980;2023-07-31T07:57:16;9.23;;;2.83;;
29210;SDS011;16250;49.932;10.980;2023-07-31T07:59:41;6.75;;;2.70;;
29210;SDS011;16250;49.932;10.980;2023-07-31T08:02:07;8.20;;;2.63;;
29210;SDS011;16250;49.932;10.980;2023-07-31T08:04:32;10.43;;;2.80;;
29210;SDS011;16250;49.932;10.980;2023-07-31T08:06:57;8.32;;;2.78;;
29210;SDS011;16250;49.932;10.980;2023-07-31T08:09:23;6.63;;;3.25;;
29210;SDS011;16250;49.932;10.980;2023-07-31T08:11:48;7.30;;;3.00;;
29210;SDS011;16250;49.932;10.980;2023-07-31T08:14:14;5.20;;;2.70;;
29210;SDS011;16250;49.932;10.980;2023-07-31T08:16:39;9.90;;;3.45;;
29210;SDS011;16250;49.932;10.980;2023-07-31T08:19:04;7.70;;;3.00;;
29210;SDS011;16250;49.932;10.980;2023-07-31T08:21:31;4.43;;;2.60;;
29210;SDS011;16250;49.932;10.980;2023-07-31T08:23:56;6.63;;;2.97;;
29210;SDS011;16250;49.932;10.980;2023-07-31T08:26:21;8.98;;;3.25;;
29210;SDS011;16250;49.932;10.980;2023-07-31T08:28:47;4.47;;;2.60;;
29210;SDS011;16250;49.932;10.980;2023-07-31T08:31:12;9.07;;;3.00;;
29210;SDS011;16250;49.932;10.980;2023-07-31T08:33:38;6.25;;;2.90;;
29210;SDS011;16250;49.932;10.980;2023-07-31T08:36:04;7.32;;;3.55;;
29210;SDS011;16250;49.932;10.980;2023-07-31T08:38:29;4.97;;;2.72;;
29210;SDS011;16250;49.932;10.980;2023-07-31T08:40:56;6.50;;;2.85;;
29210;SDS011;16250;49.932;10.980;2023-07-31T08:43:22;7.07;;;2.72;;
29210;SDS011;16250;49.932;10.980;2023-07-31T08:45:50;7.43;;;3.17;;
29210;SDS011;16250;49.932;10.980;2023-07-31T08:48:16;4.93;;;2.72;;
29210;SDS011;16250;49.932;10.980;2023-07-31T08:50:42;5.85;;;2.85;;
29210;SDS011;16250;49.932;10.980;2023-07-31T08:53:08;5.55;;;2.58;;
29210;SDS011;16250;49.932;10.980;2023-07-31T08:55:34;6.30;;;2.90;;
29210;SDS011;16250;49.932;10.980;2023-07-31T08:58:00;7.22;;;3.00;;
29210;SDS011;16250;49.932;10.980;2023-07-31T09:00:26;7.13;;;2.78;;
29210;SDS011;16250;49.932;10.980;2023-07-31T09:03:02;5.35;;;2.50;;
29210;SDS011;16250;49.932;10.980;2023-07-31T09:05:29;5.22;;;2.42;;
29210;SDS011;16250;49.932;10.980;2023-07-31T09:07:56;4.38;;;2.33;;
29210;SDS011;16250;49.932;10.980;2023-07-31T09:10:22;6.47;;;2.60;;
29210;SDS011;16250;49.932;10.980;2023-07-31T09:12:48;7.88;;;3.38;;
29210;SDS011;16250;49.932;10.980;2023-07-31T09:15:14;6.13;;;2.38;;
29210;SDS011;16250;49.932;10.980;2023-07-31T09:17:39;6.40;;;2.70;;
29210;SDS011;16250;49.932;10.980;2023-07-31T09:20:15;7.03;;;2.67;;
29210;SDS011;16250;49.932;10.980;2023-07-31T09:22:41;6.30;;;2.80;;
29210;SDS011;16250;49.932;10.980;2023-07-31T09:25:14;6.32;;;3.08;;
29210;SDS011;16250;49.932;10.980;2023-07-31T09:30:19;5.35;;;2.63;;
29210;SDS011;16250;49.932;10.980;2023-07-31T09:32:45;4.45;;;2.38;;
29210;SDS011;16250;49.932;10.980;2023-07-31T09:35:21;5.18;;;2.50;;
29210;SDS011;16250;49.932;10.980;2023-07-31T09:37:53;6.47;;;2.45;;
29210;SDS011;16250;49.932;10.980;2023-07-31T09:40:31;6.55;;;2.35;;
29210;SDS011;16250;49.932;10.980;2023-07-31T09:43:02;6.57;;;2.47;;
29210;SDS011;16250;49.932;10.980;2023-07-31T09:45:29;5.40;;;2.40;;
29210;SDS011;16250;49.932;10.980;2023-07-31T09:47:55;5.57;;;2.30;;
29210;SDS011;16250;49.932;10.980;2023-07-31T09:50:22;5.47;;;2.50;;
29210;SDS011;16250;49.932;10.980;2023-07-31T09:52:48;5.55;;;2.92;;
29210;SDS011;16250;49.932;10.980;2023-07-31T09:55:14;6.50;;;2.63;;
29210;SDS011;16250;49.932;10.980;2023-07-31T09:57:40;5.90;;;2.90;;
29210;SDS011;16250;49.932;10.980;2023-07-31T10:00:09;6.45;;;2.38;;
29210;SDS011;16250;49.932;10.980;2023-07-31T10:02:40;6.22;;;2.60;;
29210;SDS011;16250;49.932;10.980;2023-07-31T10:05:06;5.53;;;2.47;;
29210;SDS011;16250;49.932;10.980;2023-07-31T10:07:38;6.55;;;2.58;;
29210;SDS011;16250;49.932;10.980;2023-07-31T10:10:04;5.10;;;2.15;;
29210;SDS011;16250;49.932;10.980;2023-07-31T10:12:31;6.68;;;2.47;;
29210;SDS011;16250;49.932;10.980;2023-07-31T10:14:57;5.15;;;2.50;;
29210;SDS011;16250;49.932;10.980;2023-07-31T10:17:25;3.20;;;2.17;;
29210;SDS011;16250;49.932;10.980;2023-07-31T10:19:51;6.63;;;2.70;;
29210;SDS011;16250;49.932;10.980;2023-07-31T10:22:18;6.85;;;2.65;;
29210;SDS011;16250;49.932;10.980;2023-07-31T10:24:45;5.28;;;2.47;;
29210;SDS011;16250;49.932;10.980;2023-07-31T10:27:11;6.45;;;2.78;;
29210;SDS011;16250;49.932;10.980;2023-07-31T10:29:39;6.18;;;2.75;;
29210;SDS011;16250;49.932;10.980;2023-07-31T10:32:06;6.15;;;2.75;;
29210;SDS011;16250;49.932;10.980;2023-07-31T10:34:35;5.65;;;2.75;;
29210;SDS011;16250;49.932;10.980;2023-07-31T10:39:59;5.65;;;2.30;;
29210;SDS011;16250;49.932;10.980;2023-07-31T10:42:36;6.00;;;2.75;;
29210;SDS011;16250;49.932;10.980;2023-07-31T10:45:10;3.92;;;2.65;;
29210;SDS011;16250;49.932;10.980;2023-07-31T10:47:42;5.78;;;2.60;;
29210;SDS011;16250;49.932;10.980;2023-07-31T10:50:17;4.45;;;2.50;;
29210;SDS011;16250;49.932;10.980;2023-07-31T10:52:51;6.80;;;2.75;;
29210;SDS011;16250;49.932;10.980;2023-07-31T10:57:55;8.15;;;3.22;;
29210;SDS011;16250;49.932;10.980;2023-07-31T11:00:24;5.97;;;2.40;;
29210;SDS011;16250;49.932;10.980;2023-07-31T11:03:01;6.97;;;2.88;;
29210;SDS011;16250;49.932;10.980;2023-07-31T11:05:41;6.95;;;2.92;;
29210;SDS011;16250;49.932;10.980;2023-07-31T11:08:31;4.80;;;2.50;;
29210;SDS011;16250;49.932;10.980;2023-07-31T11:13:30;6.38;;;3.33;;
29210;SDS011;16250;49.932;10.980;2023-07-31T11:15:56;7.60;;;3.13;;
29210;SDS011;16250;49.932;10.980;2023-07-31T11:18:22;5.97;;;2.80;;
29210;SDS011;16250;49.932;10.980;2023-07-31T11:20:47;5.63;;;2.70;;
29210;SDS011;16250;49.932;10.980;2023-07-31T11:23:15;9.05;;;2.90;;
29210;SDS011;16250;49.932;10.980;2023-07-31T11:25:41;5.70;;;2.95;;
29210;SDS011;16250;49.932;10.980;2023-07-31T11:28:09;6.47;;;3.20;;
29210;SDS011;16250;49.932;10.980;2023-07-31T11:30:35;4.70;;;2.50;;
29210;SDS011;16250;49.932;10.980;2023-07-31T11:33:01;4.95;;;2.50;;
29210;SDS011;16250;49.932;10.980;2023-07-31T11:35:29;7.43;;;2.95;;
29210;SDS011;16250;49.932;10.980;2023-07-31T11:37:57;6.22;;;3.03;;
29210;SDS011;16250;49.932;10.980;2023-07-31T11:40:22;4.68;;;2.35;;
29210;SDS011;16250;49.932;10.980;2023-07-31T11:42:53;6.47;;;2.67;;
29210;SDS011;16250;49.932;10.980;2023-07-31T11:45:19;5.20;;;2.75;;
29210;SDS011;16250;49.932;10.980;2023-07-31T11:47:44;6.38;;;2.80;;
29210;SDS011;16250;49.932;10.980;2023-07-31T11:50:10;4.82;;;2.88;;
29210;SDS011;16250;49.932;10.980;2023-07-31T11:52:37;4.72;;;2.97;;
29210;SDS011;16250;49.932;10.980;2023-07-31T11:55:06;6.50;;;3.08;;
29210;SDS011;16250;49.932;10.980;2023-07-31T11:57:34;4.63;;;3.03;;
29210;SDS011;16250;49.932;10.980;2023-07-31T12:00:00;8.80;;;3.28;;
29210;SDS011;16250;49.932;10.980;2023-07-31T12:02:26;7.68;;;3.00;;
29210;SDS011;16250;49.932;10.980;2023-07-31T12:04:51;7.80;;;3.30;;
29210;SDS011;16250;49.932;10.980;2023-07-31T12:07:17;5.63;;;3.22;;
29210;SDS011;16250;49.932;10.980;2023-07-31T12:09:52;8.20;;;3.13;;
29210;SDS011;16250;49.932;10.980;2023-07-31T12:14:47;6.38;;;3.03;;
29210;SDS011;16250;49.932;10.980;2023-07-31T12:17:16;6.43;;;3.40;;
29210;SDS011;16250;49.932;10.980;2023-07-31T12:19:42;5.57;;;2.80;;
29210;SDS011;16250;49.932;10.980;2023-07-31T12:22:14;7.15;;;3.20;;
29210;SDS011;16250;49.932;10.980;2023-07-31T12:24:42;4.82;;;3.40;;
29210;SDS011;16250;49.932;10.980;2023-07-31T12:27:13;8.57;;;3.15;;
29210;SDS011;16250;49.932;10.980;2023-07-31T12:29:40;6.85;;;3.33;;
29210;SDS011;16250;49.932;10.980;2023-07-31T12:35:06;9.20;;;3.40;;
29210;SDS011;16250;49.932;10.980;2023-07-31T12:37:32;8.02;;;3.28;;
29210;SDS011;16250;49.932;10.980;2023-07-31T12:39:57;7.75;;;3.50;;
29210;SDS011;16250;49.932;10.980;2023-07-31T12:42:30;8.50;;;3.55;;
29210;SDS011;16250;49.932;10.980;2023-07-31T12:44:55;5.70;;;3.05;;
29210;SDS011;16250;49.932;10.980;2023-07-31T12:47:21;7.05;;;3.17;;
29210;SDS011;16250;49.932;10.980;2023-07-31T12:49:46;7.40;;;3.30;;
29210;SDS011;16250;49.932;10.980;2023-07-31T12:52:12;7.90;;;3.35;;
29210;SDS011;16250;49.932;10.980;2023-07-31T12:54:37;6.47;;;3.58;;
29210;SDS011;16250;49.932;10.980;2023-07-31T12:57:02;6.68;;;3.70;;
29210;SDS011;16250;49.932;10.980;2023-07-31T13:07:40;6.07;;;3.08;;
29210;SDS011;16250;49.932;10.980;2023-07-31T13:10:06;7.63;;;3.17;;
29210;SDS011;16250;49.932;10.980;2023-07-31T13:16:27;5.35;;;3.30;;
29210;SDS011;16250;49.932;10.980;2023-07-31T13:18:53;6.45;;;3.33;;
29210;SDS011;16250;49.932;10.980;2023-07-31T13:21:18;7.00;;;3.47;;
29210;SDS011;16250;49.932;10.980;2023-07-31T13:23:44;7.95;;;3.55;;
29210;SDS011;16250;49.932;10.980;2023-07-31T13:26:09;6.38;;;2.97;;
29210;SDS011;16250;49.932;10.980;2023-07-31T13:28:34;6.03;;;3.22;;
29210;SDS011;16250;49.932;10.980;2023-07-31T13:31:00;6.63;;;2.97;;
29210;SDS011;16250;49.932;10.980;2023-07-31T13:33:26;6.13;;;2.88;;
29210;SDS011;16250;49.932;10.980;2023-07-31T13:35:51;7.30;;;3.20;;
29210;SDS011;16250;49.932;10.980;2023-07-31T13:38:17;4.97;;;3.20;;
29210;SDS011;16250;49.932;10.980;2023-07-31T13:40:42;7.20;;;3.33;;
29210;SDS011;16250;49.932;10.980;2023-07-31T13:43:08;5.72;;;3.53;;
29210;SDS011;16250;49.932;10.980;2023-07-31T13:45:36;5.78;;;3.50;;
29210;SDS011;16250;49.932;10.980;2023-07-31T13:48:02;5.60;;;3.72;;
29210;SDS011;16250;49.932;10.980;2023-07-31T13:50:27;5.43;;;3.08;;
29210;SDS011;16250;49.932;10.980;2023-07-31T13:52:53;7.95;;;3.53;;
29210;SDS011;16250;49.932;10.980;2023-07-31T13:55:18;5.97;;;3.05;;
29210;SDS011;16250;49.932;10.980;2023-07-31T13:57:43;7.57;;;3.40;;
29210;SDS011;16250;49.932;10.980;2023-07-31T14:00:09;7.28;;;3.03;;
29210;SDS011;16250;49.932;10.980;2023-07-31T14:02:35;8.52;;;3.28;;
29210;SDS011;16250;49.932;10.980;2023-07-31T14:05:01;10.40;;;3.90;;
29210;SDS011;16250;49.932;10.980;2023-07-31T14:07:27;10.13;;;3.42;;
29210;SDS011;16250;49.932;10.980;2023-07-31T14:09:53;7.38;;;3.60;;
29210;SDS011;16250;49.932;10.980;2023-07-31T14:12:18;6.28;;;3.15;;
29210;SDS011;16250;49.932;10.980;2023-07-31T14:14:43;7.25;;;3.35;;
29210;SDS011;16250;49.932;10.980;2023-07-31T14:17:09;9.88;;;3.72;;
29210;SDS011;16250;49.932;10.980;2023-07-31T14:19:34;6.95;;;3.47;;
29210;SDS011;16250;49.932;10.980;2023-07-31T14:22:00;5.30;;;3.38;;
29210;SDS011;16250;49.932;10.980;2023-07-31T14:24:26;6.80;;;3.55;;
29210;SDS011;16250;49.932;10.980;2023-07-31T14:26:51;7.47;;;3.20;;
29210;SDS011;16250;49.932;10.980;2023-07-31T14:29:16;6.68;;;3.63;;
29210;SDS011;16250;49.932;10.980;2023-07-31T14:31:42;9.48;;;3.47;;
29210;SDS011;16250;49.932;10.980;2023-07-31T14:34:07;6.38;;;3.50;;
29210;SDS011;16250;49.932;10.980;2023-07-31T14:36:32;7.93;;;3.50;;
29210;SDS011;16250;49.932;10.980;2023-07-31T14:38:58;8.38;;;3.58;;
29210;SDS011;16250;49.932;10.980;2023-07-31T14:41:23;8.85;;;3.90;;
29210;SDS011;16250;49.932;10.980;2023-07-31T14:43:48;8.82;;;3.95;;
29210;SDS011;16250;49.932;10.980;2023-07-31T14:46:14;7.47;;;3.92;;
29210;SDS011;16250;49.932;10.980;2023-07-31T14:48:39;7.72;;;3.28;;
29210;SDS011;16250;49.932;10.980;2023-07-31T14:51:05;9.65;;;3.85;;
29210;SDS011;16250;49.932;10.980;2023-07-31T14:53:30;8.55;;;3.47;;
29210;SDS011;16250;49.932;10.980;2023-07-31T14:55:55;8.80;;;3.33;;
29210;SDS011;16250;49.932;10.980;2023-07-31T14:58:21;7.65;;;3.58;;
29210;SDS011;16250;49.932;10.980;2023-07-31T15:00:47;8.63;;;3.45;;
29210;SDS011;16250;49.932;10.980;2023-07-31T15:03:13;7.15;;;3.40;;
29210;SDS011;16250;49.932;10.980;2023-07-31T15:05:38;5.63;;;3.55;;